createdAt,value
2022-08-05T00:01:56.295Z,27.69
2022-08-05T00:04:35.882Z,27.76
2022-08-05T00:07:27.123Z,28.08
2022-08-05T00:09:50.842Z,27.80
2022-08-05T00:12:18.326Z,27.63
2022-08-05T00:14:46.182Z,27.81
2022-08-05T00:17:20.311Z,27.79
2022-08-05T00:20:02.526Z,27.69
2022-08-05T00:22:31.056Z,27.50
2022-08-05T00:25:01.665Z,27.63
2022-08-05T00:27:35.773Z,27.32
2022-08-05T00:30:11.322Z,27.26
2022-08-05T00:32:39.103Z,27.16
2022-08-05T00:35:11.445Z,27.11
2022-08-05T00:37:52.580Z,26.94
2022-08-05T00:40:26.622Z,27.05
2022-08-05T00:43:02.005Z,27.04
2022-08-05T00:45:42.891Z,26.85
2022-08-05T00:48:31.188Z,26.89
2022-08-05T00:50:58.817Z,27.06
2022-08-05T00:53:45.344Z,26.91
2022-08-05T00:56:22.724Z,26.68
2022-08-05T00:58:50.382Z,26.36
2022-08-05T01:01:41.966Z,26.63
2022-08-05T01:04:14.247Z,26.34
2022-08-05T01:06:46.676Z,26.40
2022-08-05T01:09:17.371Z,26.48
2022-08-05T01:11:54.345Z,26.42
2022-08-05T01:14:35.570Z,26.35
2022-08-05T01:17:11.627Z,26.32
2022-08-05T01:20:22.402Z,26.39
2022-08-05T01:23:59.311Z,26.18
2022-08-05T01:27:01.044Z,26.59
2022-08-05T01:29:54.619Z,26.69
2022-08-05T01:32:33.747Z,25.99
2022-08-05T01:35:50.809Z,25.94
2022-08-05T01:38:06.973Z,25.97
2022-08-05T01:40:38.094Z,25.87
2022-08-05T01:43:09.834Z,25.73
2022-08-05T01:45:56.177Z,25.56
2022-08-05T01:48:27.825Z,25.60
2022-08-05T01:50:57.760Z,25.74
2022-08-05T01:53:54.900Z,25.82
2022-08-05T01:58:18.883Z,25.72
2022-08-05T01:59:18.326Z,25.61
2022-08-05T02:01:55.565Z,25.78
2022-08-05T02:04:30.162Z,25.91
2022-08-05T02:06:59.144Z,26.11
2022-08-05T02:09:27.077Z,26.22
2022-08-05T02:12:15.835Z,26.28
2022-08-05T02:15:06.143Z,26.37
2022-08-05T02:18:27.948Z,26.55
2022-08-05T02:21:03.687Z,26.81
2022-08-05T02:23:41.515Z,26.98
2022-08-05T02:27:30.237Z,27.05
2022-08-05T02:30:13.342Z,27.17
2022-08-05T02:33:57.798Z,27.48
2022-08-05T02:36:31.418Z,27.61
2022-08-05T02:39:04.032Z,27.65
2022-08-05T02:41:57.521Z,27.57
2022-08-05T02:45:52.484Z,27.75
2022-08-05T02:49:40.404Z,27.56
2022-08-05T02:53:24.061Z,27.67
2022-08-05T02:56:00.351Z,27.48
2022-08-05T02:59:50.417Z,27.09
2022-08-05T03:04:02.666Z,27.18
2022-08-05T03:06:55.388Z,27.32
2022-08-05T03:09:15.725Z,27.27
2022-08-05T03:11:54.671Z,27.25
2022-08-05T03:15:39.378Z,27.18
2022-08-05T03:19:34.526Z,27.12
2022-08-05T03:23:19.072Z,27.00
2022-08-05T03:27:07.080Z,27.04
2022-08-05T03:30:08.593Z,26.63
2022-08-05T03:32:38.970Z,26.60
2022-08-05T03:35:08.903Z,26.59
2022-08-05T03:37:44.763Z,26.24
2022-08-05T03:40:14.486Z,26.64
2022-08-05T03:42:52.393Z,26.40
2022-08-05T03:45:21.735Z,26.23
2022-08-05T03:47:51.627Z,26.04
2022-08-05T03:50:53.807Z,26.25
2022-08-05T03:55:49.906Z,26.29
2022-08-05T03:56:43.914Z,26.33
2022-08-05T03:59:54.431Z,26.37
2022-08-05T04:02:39.140Z,26.15
2022-08-05T04:05:17.081Z,26.30
2022-08-05T04:07:58.593Z,26.33
2022-08-05T04:10:33.245Z,26.10
2022-08-05T04:13:07.974Z,25.63
2022-08-05T04:15:36.759Z,25.40
2022-08-05T04:18:09.319Z,25.56
2022-08-05T04:20:38.131Z,25.80
2022-08-05T04:23:12.273Z,25.99
2022-08-05T04:25:57.247Z,25.93
2022-08-05T04:28:31.743Z,26.21
2022-08-05T04:31:01.277Z,26.10
2022-08-05T04:34:17.902Z,25.99
2022-08-05T04:36:45.577Z,25.68
2022-08-05T04:39:07.720Z,25.61
2022-08-05T04:41:37.750Z,25.68
2022-08-05T04:44:08.820Z,26.02
2022-08-05T04:46:40.935Z,26.37
2022-08-05T04:49:15.023Z,26.52
2022-08-05T04:51:44.488Z,26.93
2022-08-05T04:54:12.331Z,27.58
2022-08-05T04:56:40.253Z,27.94
2022-08-05T04:59:13.819Z,28.12
2022-08-05T05:02:35.527Z,28.19
2022-08-05T05:04:43.835Z,28.00
2022-08-05T05:07:17.707Z,27.74
2022-08-05T05:09:45.677Z,27.60
2022-08-05T05:12:13.331Z,27.39
2022-08-05T05:15:13.777Z,27.60
2022-08-05T05:17:56.585Z,28.56
2022-08-05T05:20:28.147Z,29.76
2022-08-05T05:22:59.254Z,31.43
2022-08-05T05:25:32.635Z,32.90
2022-08-05T05:28:12.242Z,34.40
2022-08-05T05:30:42.938Z,35.20
2022-08-05T05:33:17.656Z,36.01
2022-08-05T05:35:50.892Z,36.95
2022-08-05T05:38:22.758Z,37.65
2022-08-05T05:40:57.022Z,38.63
2022-08-05T05:43:56.791Z,39.56
2022-08-05T05:46:17.213Z,40.31
2022-08-05T05:48:48.676Z,41.13
2022-08-05T05:51:25.713Z,41.70
2022-08-05T05:53:59.588Z,42.07
2022-08-05T05:56:34.524Z,41.93
2022-08-05T05:59:07.706Z,42.07
2022-08-05T06:01:57.098Z,42.39
2022-08-05T06:04:25.917Z,43.63
2022-08-05T06:06:53.848Z,42.84
2022-08-05T06:09:25.844Z,43.87
2022-08-05T06:12:12.165Z,45.24
2022-08-05T06:14:48.093Z,44.93
2022-08-05T06:17:22.282Z,44.96
2022-08-05T06:19:56.712Z,44.73
2022-08-05T06:22:33.746Z,44.47
2022-08-05T06:25:25.105Z,44.55
2022-08-05T06:28:12.351Z,45.68
2022-08-05T06:30:46.481Z,46.19
2022-08-05T06:33:19.112Z,46.42
2022-08-05T06:36:07.159Z,47.16
2022-08-05T06:38:36.845Z,46.41
2022-08-05T06:41:07.890Z,46.09
2022-08-05T06:43:59.228Z,46.80
2022-08-05T06:46:29.724Z,46.75
2022-08-05T06:49:01.097Z,47.27
2022-08-05T06:51:32.029Z,48.41
2022-08-05T06:54:04.810Z,48.80
2022-08-05T06:56:34.296Z,49.58
2022-08-05T06:59:08.513Z,49.16
2022-08-05T07:01:43.463Z,49.34
2022-08-05T07:04:14.088Z,49.57
2022-08-05T07:06:42.192Z,49.92
2022-08-05T07:09:09.446Z,50.81
2022-08-05T07:11:39.881Z,51.07
2022-08-05T07:14:32.169Z,51.05
2022-08-05T07:18:00.823Z,51.47
2022-08-05T07:22:44.730Z,51.41
2022-08-05T07:25:53.919Z,51.36
2022-08-05T07:28:05.917Z,51.13
2022-08-05T07:30:39.699Z,50.20
2022-08-05T07:33:16.216Z,48.45
2022-08-05T07:36:03.942Z,47.95
2022-08-05T07:38:43.510Z,48.54
2022-08-05T07:42:08.235Z,48.65
2022-08-05T07:44:14.344Z,49.46
2022-08-05T07:46:49.708Z,49.38
2022-08-05T07:49:20.580Z,50.36
2022-08-05T07:51:54.563Z,50.36
2022-08-05T07:54:33.396Z,50.59
2022-08-05T07:57:18.171Z,50.99
2022-08-05T07:59:53.900Z,52.28
2022-08-05T08:02:31.307Z,53.34
2022-08-05T08:05:17.454Z,53.99
2022-08-05T08:07:59.566Z,54.69
2022-08-05T08:10:31.296Z,55.36
2022-08-05T08:13:01.644Z,55.37
2022-08-05T08:16:33.988Z,54.84
2022-08-05T08:18:20.804Z,55.14
2022-08-05T08:21:02.023Z,55.39
2022-08-05T08:24:01.409Z,55.24
2022-08-05T08:26:29.387Z,53.55
2022-08-05T08:29:02.255Z,51.92
2022-08-05T08:31:49.605Z,52.85
2022-08-05T08:34:30.867Z,53.72
2022-08-05T08:37:05.202Z,52.92
2022-08-05T08:39:37.228Z,53.14
2022-08-05T08:42:34.552Z,54.06
2022-08-05T08:45:19.346Z,53.91
2022-08-05T08:48:07.750Z,52.87
2022-08-05T08:51:07.725Z,53.69
2022-08-05T08:53:44.267Z,51.99
2022-08-05T08:56:12.833Z,50.89
2022-08-05T08:58:47.591Z,51.53
2022-08-05T09:01:19.850Z,52.61
2022-08-05T09:03:57.285Z,54.51
2022-08-05T09:06:30.718Z,54.47
2022-08-05T09:09:02.240Z,54.58
2022-08-05T09:11:51.091Z,54.96
2022-08-05T09:14:57.811Z,55.30
2022-08-05T09:17:41.392Z,55.68
2022-08-05T09:20:05.327Z,55.92
2022-08-05T09:23:18.940Z,56.20
2022-08-05T09:26:22.181Z,54.87
2022-08-05T09:28:49.869Z,52.31
2022-08-05T09:31:22.522Z,50.99
2022-08-05T09:34:11.112Z,51.81
2022-08-05T09:36:54.916Z,53.42
2022-08-05T09:39:41.187Z,53.37
2022-08-05T09:42:28.546Z,52.83
2022-08-05T09:46:06.671Z,53.86
2022-08-05T09:48:30.978Z,55.34
2022-08-05T09:51:04.073Z,54.12
2022-08-05T09:53:59.321Z,53.98
2022-08-05T09:56:40.421Z,54.62
2022-08-05T09:59:24.240Z,53.84
2022-08-05T10:01:58.535Z,53.27
2022-08-05T10:04:39.588Z,51.21
2022-08-05T10:07:20.051Z,49.60
2022-08-05T10:10:04.283Z,48.65
2022-08-05T10:13:01.000Z,50.64
2022-08-05T10:15:41.414Z,51.50
2022-08-05T10:18:20.320Z,51.52
2022-08-05T10:20:52.919Z,51.79
2022-08-05T10:23:56.522Z,51.07
2022-08-05T10:26:24.222Z,52.77
2022-08-05T10:29:10.742Z,51.43
2022-08-05T10:32:51.664Z,52.36
2022-08-05T10:35:33.782Z,53.03
2022-08-05T10:38:11.853Z,53.61
2022-08-05T10:41:14.153Z,53.34
2022-08-05T10:44:06.779Z,55.01
2022-08-05T10:46:59.754Z,55.40
2022-08-05T10:49:33.430Z,52.74
2022-08-05T10:53:02.691Z,54.15
2022-08-05T10:55:38.434Z,55.08
2022-08-05T10:58:20.617Z,54.74
2022-08-05T11:00:48.451Z,53.02
2022-08-05T11:03:26.609Z,52.83
2022-08-05T11:06:15.429Z,53.75
2022-08-05T11:09:32.202Z,54.87
2022-08-05T11:12:37.233Z,55.34
2022-08-05T11:15:20.734Z,54.02
2022-08-05T11:17:59.071Z,54.62
2022-08-05T11:20:53.209Z,54.85
2022-08-05T11:24:05.471Z,54.70
2022-08-05T11:26:38.683Z,53.66
2022-08-05T11:29:12.962Z,52.76
2022-08-05T11:31:57.571Z,54.17
2022-08-05T11:34:51.547Z,55.58
2022-08-05T11:38:29.002Z,54.24
2022-08-05T11:42:01.357Z,54.16
2022-08-05T11:46:14.979Z,52.35
2022-08-05T11:49:49.859Z,51.55
2022-08-05T11:52:31.191Z,52.43
2022-08-05T11:56:14.235Z,50.76
2022-08-05T11:59:56.994Z,50.62
2022-08-05T12:03:44.937Z,50.55
2022-08-05T12:06:29.469Z,50.90
2022-08-05T12:08:59.474Z,51.09
2022-08-05T12:11:39.734Z,50.73
2022-08-05T12:15:38.012Z,50.82
2022-08-05T12:20:26.678Z,51.14
2022-08-05T12:23:56.311Z,50.00
2022-08-05T12:26:30.176Z,50.36
2022-08-05T12:28:59.262Z,49.91
2022-08-05T12:31:32.706Z,49.37
2022-08-05T12:35:36.913Z,48.79
2022-08-05T12:39:23.538Z,49.58
2022-08-05T12:42:00.117Z,49.55
2022-08-05T12:45:09.891Z,49.18
2022-08-05T12:47:43.545Z,49.69
2022-08-05T12:50:30.984Z,49.94
2022-08-05T12:52:59.661Z,50.34
2022-08-05T12:55:32.801Z,51.23
2022-08-05T12:58:48.267Z,49.18
2022-08-05T13:02:00.627Z,49.23
2022-08-05T13:03:42.008Z,50.04
2022-08-05T13:06:19.925Z,49.88
2022-08-05T13:08:52.333Z,49.27
2022-08-05T13:12:01.517Z,48.49
2022-08-05T13:14:24.850Z,47.04
2022-08-05T13:17:16.161Z,47.09
2022-08-05T13:20:23.232Z,46.26
2022-08-05T13:23:18.293Z,45.63
2022-08-05T13:25:59.445Z,45.54
2022-08-05T13:28:32.402Z,43.80
2022-08-05T13:31:00.303Z,45.01
2022-08-05T13:34:24.394Z,44.89
2022-08-05T13:36:26.045Z,44.90
2022-08-05T13:38:54.154Z,44.88
2022-08-05T13:41:22.498Z,45.16
2022-08-05T13:43:54.790Z,45.11
2022-08-05T13:46:43.705Z,44.52
2022-08-05T13:49:15.330Z,43.95
2022-08-05T13:51:46.050Z,44.30
2022-08-05T13:54:17.017Z,44.45
2022-08-05T13:56:50.797Z,44.73
2022-08-05T13:59:25.347Z,44.98
2022-08-05T14:03:12.906Z,44.49
2022-08-05T14:06:58.624Z,44.01
2022-08-05T14:10:59.774Z,43.24
2022-08-05T14:14:46.681Z,42.22
2022-08-05T14:18:30.453Z,40.86
2022-08-05T14:21:00.224Z,40.92
2022-08-05T14:23:47.303Z,40.42
2022-08-05T14:27:30.325Z,40.26
2022-08-05T14:31:17.539Z,40.22
2022-08-05T14:35:20.725Z,39.44
2022-08-05T14:39:10.977Z,39.11
2022-08-05T14:41:38.496Z,38.97
2022-08-05T14:44:20.180Z,38.33
2022-08-05T14:46:48.190Z,38.29
2022-08-05T14:49:17.086Z,37.67
2022-08-05T14:51:44.460Z,37.51
2022-08-05T14:54:29.900Z,37.40
2022-08-05T14:57:01.067Z,37.23
2022-08-05T14:59:35.415Z,37.24
2022-08-05T15:02:14.819Z,37.37
2022-08-05T15:04:43.765Z,37.20
2022-08-05T15:07:12.213Z,37.19
2022-08-05T15:10:01.409Z,37.58
2022-08-05T15:12:51.287Z,37.78
2022-08-05T15:15:18.334Z,37.37
2022-08-05T15:18:06.082Z,37.46
2022-08-05T15:20:33.860Z,37.43
2022-08-05T15:23:07.023Z,37.80
2022-08-05T15:25:51.102Z,38.45
2022-08-05T15:28:27.284Z,38.28
2022-08-05T15:30:56.539Z,38.29
2022-08-05T15:34:04.881Z,37.76
2022-08-05T15:36:17.707Z,37.46
2022-08-05T15:40:41.166Z,36.45
2022-08-05T15:41:58.326Z,36.19
2022-08-05T15:44:30.849Z,36.77
2022-08-05T15:47:01.604Z,36.58
2022-08-05T15:49:48.215Z,36.41
2022-08-05T15:52:51.826Z,36.15
2022-08-05T15:55:16.088Z,36.16
2022-08-05T15:57:45.108Z,36.69
2022-08-05T16:00:16.806Z,36.07
2022-08-05T16:02:53.767Z,35.75
2022-08-05T16:05:22.943Z,35.81
2022-08-05T16:07:57.173Z,35.77
2022-08-05T16:10:25.493Z,35.57
2022-08-05T16:12:55.915Z,35.78
2022-08-05T16:15:24.656Z,36.00
2022-08-05T16:18:00.467Z,35.81
2022-08-05T16:20:31.627Z,35.62
2022-08-05T16:23:00.069Z,35.18
2022-08-05T16:25:34.718Z,35.09
2022-08-05T16:28:06.645Z,34.80
2022-08-05T16:30:38.583Z,34.98
2022-08-05T16:33:06.366Z,35.13
2022-08-05T16:35:42.081Z,35.40
2022-08-05T16:38:23.769Z,35.15
2022-08-05T16:41:00.068Z,34.86
2022-08-05T16:43:36.126Z,34.15
2022-08-05T16:46:23.885Z,34.49
2022-08-05T16:48:52.852Z,34.47
2022-08-05T16:51:20.789Z,34.49
2022-08-05T16:54:06.270Z,34.19
2022-08-05T16:56:36.903Z,34.00
2022-08-05T16:59:10.219Z,33.83
2022-08-05T17:01:53.671Z,33.60
2022-08-05T17:04:27.755Z,33.38
2022-08-05T17:07:03.605Z,33.49
2022-08-05T17:09:58.030Z,33.36
2022-08-05T17:12:51.657Z,32.98
2022-08-05T17:15:15.503Z,33.29
2022-08-05T17:17:55.015Z,33.37
2022-08-05T17:20:25.077Z,33.05
2022-08-05T17:22:55.391Z,32.85
2022-08-05T17:25:48.697Z,32.87
2022-08-05T17:28:16.844Z,32.64
2022-08-05T17:30:51.764Z,32.94
2022-08-05T17:33:28.465Z,32.81
2022-08-05T17:36:32.847Z,32.85
2022-08-05T17:38:57.394Z,32.66
2022-08-05T17:42:17.650Z,32.33
2022-08-05T17:44:14.500Z,32.31
2022-08-05T17:46:45.286Z,32.37
2022-08-05T17:49:15.654Z,32.23
2022-08-05T17:51:43.704Z,32.21
2022-08-05T17:54:14.374Z,32.40
2022-08-05T17:56:53.709Z,32.26
2022-08-05T17:59:24.247Z,32.12
2022-08-05T18:01:53.341Z,31.91
2022-08-05T18:04:27.787Z,31.75
2022-08-05T18:06:55.702Z,31.42
2022-08-05T18:09:59.015Z,31.09
2022-08-05T18:12:27.109Z,31.22
2022-08-05T18:14:56.117Z,31.05
2022-08-05T18:18:00.796Z,31.07
2022-08-05T18:20:14.877Z,30.72
2022-08-05T18:22:53.883Z,30.88
2022-08-05T18:25:23.339Z,30.77
2022-08-05T18:27:52.848Z,30.82
2022-08-05T18:30:20.503Z,30.71
2022-08-05T18:32:53.694Z,30.86
2022-08-05T18:36:00.960Z,30.95
2022-08-05T18:38:19.288Z,30.84
2022-08-05T18:41:53.374Z,30.78
2022-08-05T18:43:43.069Z,30.54
2022-08-05T18:46:19.916Z,30.34
2022-08-05T18:48:52.459Z,30.35
2022-08-05T18:52:04.016Z,30.60
2022-08-05T18:54:31.315Z,30.43
2022-08-05T18:57:01.338Z,30.20
2022-08-05T18:59:43.212Z,30.18
2022-08-05T19:02:27.153Z,30.05
2022-08-05T19:05:03.251Z,30.19
2022-08-05T19:07:50.794Z,30.06
2022-08-05T19:10:28.162Z,29.99
2022-08-05T19:12:57.470Z,29.88
2022-08-05T19:15:58.046Z,29.79
2022-08-05T19:18:22.209Z,29.47
2022-08-05T19:20:52.583Z,29.20
2022-08-05T19:24:05.011Z,28.98
2022-08-05T19:26:09.536Z,28.92
2022-08-05T19:28:47.066Z,28.93
2022-08-05T19:31:17.930Z,28.90
2022-08-05T19:33:48.176Z,28.68
2022-08-05T19:36:26.749Z,28.93
2022-08-05T19:39:01.197Z,28.98
2022-08-05T19:41:58.033Z,28.97
2022-08-05T19:44:19.507Z,28.79
2022-08-05T19:46:47.674Z,28.67
2022-08-05T19:49:18.336Z,28.79
2022-08-05T19:52:08.661Z,28.70
2022-08-05T19:54:36.920Z,28.93
2022-08-05T19:57:09.168Z,28.72
2022-08-05T19:59:55.369Z,28.68
2022-08-05T20:02:31.362Z,28.87
2022-08-05T20:04:59.993Z,28.98
2022-08-05T20:07:38.925Z,28.61
2022-08-05T20:10:22.169Z,28.72
2022-08-05T20:12:50.187Z,28.51
2022-08-05T20:15:23.354Z,28.42
2022-08-05T20:18:32.635Z,28.34
2022-08-05T20:20:57.884Z,28.36
2022-08-05T20:23:39.269Z,28.38
2022-08-05T20:26:24.656Z,28.29
2022-08-05T20:28:58.070Z,27.84
2022-08-05T20:31:42.191Z,27.65
2022-08-05T20:34:17.911Z,27.64
2022-08-05T20:36:45.798Z,27.67
2022-08-05T20:39:16.674Z,27.67
2022-08-05T20:41:47.721Z,27.67
2022-08-05T20:44:29.674Z,27.31
2022-08-05T20:47:03.377Z,27.42
2022-08-05T20:49:37.855Z,27.35
2022-08-05T20:52:07.953Z,27.36
2022-08-05T20:54:43.308Z,27.41
2022-08-05T20:57:43.560Z,27.49
2022-08-05T21:00:34.886Z,27.44
2022-08-05T21:03:07.284Z,27.41
2022-08-05T21:05:53.625Z,27.30
2022-08-05T21:08:26.617Z,27.15
2022-08-05T21:11:09.305Z,26.89
2022-08-05T21:13:55.632Z,27.01
2022-08-05T21:16:29.904Z,26.99
2022-08-05T21:19:03.452Z,27.23
2022-08-05T21:21:44.016Z,27.04
2022-08-05T21:24:19.531Z,27.13
2022-08-05T21:26:56.181Z,26.99
2022-08-05T21:29:32.187Z,27.02
2022-08-05T21:32:02.795Z,27.20
2022-08-05T21:34:33.043Z,27.23
2022-08-05T21:37:05.114Z,26.86
2022-08-05T21:39:34.793Z,26.67
2022-08-05T21:42:29.120Z,26.71
2022-08-05T21:44:58.794Z,26.65
2022-08-05T21:47:54.713Z,26.28
2022-08-05T21:50:16.301Z,26.53
2022-08-05T21:52:47.420Z,26.36
2022-08-05T21:55:42.891Z,26.22
2022-08-05T21:58:05.566Z,26.37
2022-08-05T22:00:34.524Z,26.38
2022-08-05T22:03:04.529Z,26.52
2022-08-05T22:05:48.430Z,26.57
2022-08-05T22:08:24.336Z,26.10
2022-08-05T22:10:55.494Z,26.11
2022-08-05T22:14:19.827Z,26.07
2022-08-05T22:16:39.606Z,26.09
2022-08-05T22:19:02.328Z,26.26
2022-08-05T22:21:31.811Z,26.37
2022-08-05T22:24:40.284Z,26.36
2022-08-05T22:27:26.522Z,26.22
2022-08-05T22:30:17.122Z,26.12
2022-08-05T22:32:45.284Z,26.46
2022-08-05T22:35:14.163Z,26.25
2022-08-05T22:37:58.717Z,26.31
2022-08-05T22:40:30.788Z,26.46
2022-08-05T22:42:59.003Z,26.18
2022-08-05T22:45:26.902Z,26.42
2022-08-05T22:47:58.038Z,26.40
2022-08-05T22:50:27.685Z,26.31
2022-08-05T22:52:56.135Z,26.23
2022-08-05T22:55:26.059Z,26.43
2022-08-05T22:57:54.974Z,26.39
2022-08-05T23:00:24.280Z,26.43
2022-08-05T23:02:55.120Z,26.37
2022-08-05T23:05:24.358Z,26.32
2022-08-05T23:07:53.238Z,26.12
2022-08-05T23:10:23.856Z,25.99
2022-08-05T23:12:55.531Z,26.02
2022-08-05T23:15:35.308Z,26.14
2022-08-05T23:18:06.035Z,26.35
2022-08-05T23:20:40.036Z,26.04
2022-08-05T23:23:12.935Z,25.85
2022-08-05T23:25:52.003Z,25.70
2022-08-05T23:28:30.811Z,25.69
2022-08-05T23:31:15.853Z,25.97
2022-08-05T23:34:04.884Z,25.72
2022-08-05T23:36:38.575Z,25.73
2022-08-05T23:39:09.398Z,25.72
2022-08-05T23:42:53.596Z,25.58
2022-08-05T23:46:37.395Z,25.63
2022-08-05T23:50:22.394Z,25.56
2022-08-05T23:54:07.066Z,25.63
2022-08-05T23:57:54.122Z,25.70
